Time;durP1;ratioP1;P1;durP2;ratioP2;P2;SDS_P1;SDS_P2;PMS_P1;PMS_P2;Temp;Humidity;BMP_temperature;BMP_pressure;BME280_temperature;BME280_humidity;BME280_pressure;Samples;Min_cycle;Max_cycle;Signal;HPM_P1;HPM_P2
2023/09/21 00:00:25;;;;;;;;;;;;;;;17.39;90.53;99868.47;1056451;28;19952;-52
2023/09/21 00:00:57;;;;;;;;;;;;;;;17.39;90.76;99879.25;1056641;28;20022;-52
2023/09/21 00:01:34;;;;;;;;;;;;;;;17.36;90.98;99879.03;1056217;28;20012;-53
2023/09/21 00:02:06;;;;;;;;;;;;;;;17.36;90.93;99879.81;1056252;28;19930;-53
2023/09/21 00:02:38;;;;;;;;;;;;;;;17.40;90.56;99875.47;1056637;28;19963;-54
2023/09/21 00:03:09;;;;;;;;;;;;;;;17.44;90.75;99870.31;1054237;28;20249;-54
2023/09/21 00:03:41;;;;;;;;;;;;;;;17.41;91.00;99870.88;1056351;28;20448;-52
2023/09/21 00:04:13;;;;;;;;;;;;;;;17.39;91.07;99860.41;1056339;28;19931;-53
2023/09/21 00:04:45;;;;;;;;;;;;;;;17.53;89.57;99869.44;1056815;28;19924;-52
2023/09/21 00:05:21;;;;;;;;;;;;;;;17.52;90.04;99867.78;1051685;28;19924;-53
2023/09/21 00:05:54;;;;;;;;;;;;;;;17.45;89.77;99870.03;1051859;28;20069;-55
2023/09/21 00:06:26;;;;;;;;;;;;;;;17.41;90.25;99882.47;1051897;28;19946;-55
2023/09/21 00:06:58;;;;;;;;;;;;;;;17.49;89.87;99872.94;1052892;28;19924;-55
2023/09/21 00:07:31;;;;;;;;;;;;;;;17.40;90.33;99878.16;1048150;28;19924;-55
2023/09/21 00:08:02;;;;;;;;;;;;;;;17.42;90.64;99872.50;1047650;28;20023;-54
2023/09/21 00:08:34;;;;;;;;;;;;;;;17.47;90.06;99880.50;1047857;28;19925;-55
2023/09/21 00:09:06;;;;;;;;;;;;;;;17.41;90.77;99879.75;1049433;28;19958;-55
2023/09/21 00:09:38;;;;;;;;;;;;;;;17.42;90.77;99881.38;1056227;28;19923;-55
2023/09/21 00:10:10;;;;;;;;;;;;;;;17.48;90.00;99861.38;1056277;28;20873;-54
2023/09/21 00:10:41;;;;;;;;;;;;;;;17.41;90.53;99863.63;1056825;28;19924;-56
2023/09/21 00:11:14;;;;;;;;;;;;;;;17.46;90.29;99866.25;1056378;28;20006;-55
2023/09/21 00:11:46;;;;;;;;;;;;;;;17.45;90.04;99867.34;1056225;28;20483;-55
2023/09/21 00:12:18;;;;;;;;;;;;;;;17.41;90.32;99871.69;1056408;28;20019;-54
2023/09/21 00:12:49;;;;;;;;;;;;;;;17.42;90.57;99873.28;1056578;28;20377;-55
2023/09/21 00:13:26;;;;;;;;;;;;;;;17.40;90.60;99869.28;1056507;28;19931;-55
2023/09/21 00:13:58;;;;;;;;;;;;;;;17.39;90.17;99875.75;1056333;28;19923;-55
2023/09/21 00:14:30;;;;;;;;;;;;;;;17.40;90.29;99875.47;1056214;28;19924;-55
2023/09/21 00:15:04;;;;;;;;;;;;;;;17.43;90.10;99874.91;1056724;28;19945;-55
2023/09/21 00:15:36;;;;;;;;;;;;;;;17.38;90.60;99883.03;1056766;28;19931;-55
2023/09/21 00:16:08;;;;;;;;;;;;;;;17.43;90.06;99874.91;1056304;28;19923;-55
2023/09/21 00:16:40;;;;;;;;;;;;;;;17.45;90.33;99867.34;1056251;28;19931;-55
2023/09/21 00:17:12;;;;;;;;;;;;;;;17.47;90.52;99862.47;1056755;28;19923;-55
2023/09/21 00:17:47;;;;;;;;;;;;;;;17.46;90.22;99863.56;1056422;28;19931;-55
2023/09/21 00:18:22;;;;;;;;;;;;;;;17.51;89.56;99865.38;1056404;28;19931;-55
2023/09/21 00:18:55;;;;;;;;;;;;;;;17.55;89.08;99859.16;1056513;28;20394;-55
2023/09/21 00:19:26;;;;;;;;;;;;;;;17.51;89.13;99857.31;1051879;28;19924;-55
2023/09/21 00:19:59;;;;;;;;;;;;;;;17.47;89.59;99864.34;1047944;28;20046;-55
2023/09/21 00:20:42;;;;;;;;;;;;;;;17.45;89.37;99861.16;1047321;28;19928;-55
2023/09/21 00:21:14;;;;;;;;;;;;;;;17.45;89.52;99856.56;1050238;28;20387;-55
2023/09/21 00:21:46;;;;;;;;;;;;;;;17.56;89.24;99858.09;1053852;28;19924;-55
2023/09/21 00:22:17;;;;;;;;;;;;;;;17.49;89.60;99856.78;1056238;28;19954;-55
2023/09/21 00:22:50;;;;;;;;;;;;;;;17.50;89.69;99859.19;1056403;28;19923;-55
2023/09/21 00:23:25;;;;;;;;;;;;;;;17.44;89.86;99864.94;1051653;28;19931;-55
2023/09/21 00:24:00;;;;;;;;;;;;;;;17.40;89.96;99864.69;1051779;28;19924;-55
2023/09/21 00:24:32;;;;;;;;;;;;;;;17.37;90.45;99869.84;1051669;28;20398;-55
2023/09/21 00:25:04;;;;;;;;;;;;;;;17.38;90.01;99861.50;1053587;28;19938;-55
2023/09/21 00:25:37;;;;;;;;;;;;;;;17.39;90.32;99867.69;1056723;28;19924;-55
2023/09/21 00:26:09;;;;;;;;;;;;;;;17.40;90.38;99864.69;1056241;28;20475;-55
2023/09/21 00:26:41;;;;;;;;;;;;;;;17.37;90.60;99856.41;1056331;28;20501;-54
2023/09/21 00:27:13;;;;;;;;;;;;;;;17.42;90.23;99845.56;1047941;28;19967;-55
2023/09/21 00:27:45;;;;;;;;;;;;;;;17.41;90.22;99844.78;1049063;28;19924;-53
2023/09/21 00:28:19;;;;;;;;;;;;;;;17.37;90.46;99853.72;1049471;28;20030;-53
2023/09/21 00:28:51;;;;;;;;;;;;;;;17.37;89.89;99856.41;1050450;28;19924;-53
2023/09/21 00:29:24;;;;;;;;;;;;;;;17.30;90.99;99864.81;1052749;28;20417;-53
2023/09/21 00:29:55;;;;;;;;;;;;;;;17.23;92.18;99864.31;1048622;28;19928;-53
2023/09/21 00:30:27;;;;;;;;;;;;;;;17.22;92.28;99862.72;1048332;28;20010;-52
2023/09/21 00:30:58;;;;;;;;;;;;;;;17.18;92.37;99850.91;1048495;28;20007;-53
2023/09/21 00:31:30;;;;;;;;;;;;;;;17.19;91.74;99855.22;1053106;28;20366;-52
2023/09/21 00:32:02;;;;;;;;;;;;;;;17.27;91.75;99860.00;1052509;28;19924;-53
2023/09/21 00:32:38;;;;;;;;;;;;;;;17.23;91.62;99853.56;1052363;28;19931;-52
2023/09/21 00:33:10;;;;;;;;;;;;;;;17.26;91.64;99848.44;1052880;28;19939;-52
2023/09/21 00:33:42;;;;;;;;;;;;;;;17.25;91.56;99852.19;1054157;28;19924;-50
2023/09/21 00:34:14;;;;;;;;;;;;;;;17.20;91.68;99843.38;1057049;28;19931;-53
2023/09/21 00:34:49;;;;;;;;;;;;;;;17.22;91.44;99846.56;1052674;28;19930;-52
2023/09/21 00:35:23;;;;;;;;;;;;;;;17.26;90.89;99850.31;1048310;28;19979;-52
2023/09/21 00:35:55;;;;;;;;;;;;;;;17.33;91.01;99856.16;1048650;28;19925;-52
2023/09/21 00:36:26;;;;;;;;;;;;;;;17.31;91.38;99839.50;1045503;28;19925;-52
2023/09/21 00:36:58;;;;;;;;;;;;;;;17.27;91.77;99839.28;1045081;28;20012;-52
2023/09/21 00:37:36;;;;;;;;;;;;;;;17.26;91.34;99837.66;1044306;28;19925;-52
2023/09/21 00:38:11;;;;;;;;;;;;;;;17.34;91.04;99838.13;1045604;28;19947;-53
2023/09/21 00:38:42;;;;;;;;;;;;;;;17.30;91.13;99843.28;1046238;28;19932;-50
2023/09/21 00:39:15;;;;;;;;;;;;;;;17.32;91.40;99851.88;1048241;28;19924;-52
2023/09/21 00:39:47;;;;;;;;;;;;;;;17.29;91.14;99839.00;1053316;28;20010;-53
2023/09/21 00:40:20;;;;;;;;;;;;;;;17.33;91.05;99836.53;1057011;28;20403;-52
2023/09/21 00:41:07;;;;;;;;;;;;;;;17.32;90.95;99830.34;1055040;28;20031;-53
2023/09/21 00:41:39;;;;;;;;;;;;;;;17.28;91.18;99834.69;1056838;28;19923;-52
2023/09/21 00:42:11;;;;;;;;;;;;;;;17.20;91.61;99832.59;1057089;28;19924;-51
2023/09/21 00:42:43;;;;;;;;;;;;;;;17.22;91.31;99830.44;1052757;28;19931;-52
2023/09/21 00:43:21;;;;;;;;;;;;;;;17.23;91.19;99823.94;1053019;28;19924;-52
2023/09/21 00:43:52;;;;;;;;;;;;;;;17.26;91.62;99826.09;1048499;28;20271;-52
2023/09/21 00:44:24;;;;;;;;;;;;;;;17.25;91.52;99821.78;1049643;28;20455;-53
2023/09/21 00:44:55;;;;;;;;;;;;;;;17.26;91.30;99820.72;1053023;28;19924;-53
2023/09/21 00:45:29;;;;;;;;;;;;;;;17.25;91.48;99819.09;1048979;28;20306;-52
2023/09/21 00:46:03;;;;;;;;;;;;;;;17.29;91.15;99825.53;1046559;28;20414;-52
2023/09/21 00:46:36;;;;;;;;;;;;;;;17.22;91.38;99825.03;1044287;28;19932;-55
2023/09/21 00:47:07;;;;;;;;;;;;;;;17.18;91.51;99816.75;1045077;28;19925;-55
2023/09/21 00:47:43;;;;;;;;;;;;;;;17.18;91.38;99815.94;1050004;28;19925;-55
2023/09/21 00:48:22;;;;;;;;;;;;;;;17.17;91.39;99827.78;1054017;28;19924;-55
2023/09/21 00:48:53;;;;;;;;;;;;;;;17.20;91.45;99816.44;1052789;28;20333;-55
2023/09/21 00:49:26;;;;;;;;;;;;;;;17.17;91.65;99823.22;1052782;28;19924;-55
2023/09/21 00:49:57;;;;;;;;;;;;;;;17.17;91.43;99817.03;1048446;28;20289;-55
2023/09/21 00:50:29;;;;;;;;;;;;;;;17.16;91.81;99812.72;1049792;28;20542;-56
2023/09/21 00:51:01;;;;;;;;;;;;;;;17.19;91.35;99817.53;1044593;28;19925;-55
2023/09/21 00:51:33;;;;;;;;;;;;;;;17.26;91.45;99807.25;1044711;28;19932;-54
2023/09/21 00:52:05;;;;;;;;;;;;;;;17.26;91.16;99810.75;1048446;28;20348;-55
2023/09/21 00:52:43;;;;;;;;;;;;;;;17.27;91.10;99803.47;1044225;28;19925;-56
2023/09/21 00:53:14;;;;;;;;;;;;;;;17.33;90.95;99809.59;1042534;28;19991;-55
2023/09/21 00:53:46;;;;;;;;;;;;;;;17.27;91.01;99811.56;1045948;28;19925;-55
2023/09/21 00:54:19;;;;;;;;;;;;;;;17.27;90.72;99814.25;1045705;28;19925;-52
2023/09/21 00:54:55;;;;;;;;;;;;;;;17.26;90.78;99810.75;1044936;28;20023;-52
2023/09/21 00:55:30;;;;;;;;;;;;;;;17.30;90.79;99813.69;1048828;28;19930;-54
2023/09/21 00:56:04;;;;;;;;;;;;;;;17.22;91.37;99811.59;1050499;28;19925;-51
2023/09/21 00:56:38;;;;;;;;;;;;;;;17.24;91.71;99806.72;1054873;28;20391;-53
2023/09/21 00:57:12;;;;;;;;;;;;;;;17.21;91.95;99802.72;1055210;28;19924;-53
2023/09/21 00:57:44;;;;;;;;;;;;;;;17.19;92.36;99801.41;1054594;28;19924;-52
2023/09/21 00:58:16;;;;;;;;;;;;;;;17.19;91.85;99801.41;1057275;28;19930;-52
2023/09/21 00:58:48;;;;;;;;;;;;;;;17.12;92.21;99800.94;1057472;28;20107;-52
2023/09/21 00:59:19;;;;;;;;;;;;;;;17.13;92.42;99802.53;1057149;28;19924;-52
2023/09/21 00:59:52;;;;;;;;;;;;;;;17.17;92.35;99798.19;1052454;28;20199;-53
2023/09/21 01:00:25;;;;;;;;;;;;;;;17.18;92.30;99797.91;1054178;28;19979;-51
2023/09/21 01:00:57;;;;;;;;;;;;;;;17.13;92.09;99799.84;1041828;28;20501;-52
2023/09/21 01:01:28;;;;;;;;;;;;;;;17.12;92.40;99793.66;1045066;28;19925;-52
2023/09/21 01:02:00;;;;;;;;;;;;;;;17.14;92.17;99798.75;1048406;28;20026;-53
2023/09/21 01:02:32;;;;;;;;;;;;;;;17.15;92.08;99797.66;1052566;28;20117;-53
2023/09/21 01:03:27;;;;;;;;;;;;;;;17.17;92.13;99800.88;1052527;28;19924;-52
2023/09/21 01:04:06;;;;;;;;;;;;;;;17.19;91.77;99794.13;1047193;28;19943;-52
2023/09/21 01:04:39;;;;;;;;;;;;;;;17.16;92.01;99791.22;1045367;28;19928;-54
2023/09/21 01:05:13;;;;;;;;;;;;;;;17.17;91.71;99795.50;1052747;28;20328;-55
2023/09/21 01:05:48;;;;;;;;;;;;;;;17.23;91.77;99792.47;1054459;28;20449;-54
2023/09/21 01:06:20;;;;;;;;;;;;;;;17.21;91.84;99783.88;1052155;28;20010;-55
2023/09/21 01:06:54;;;;;;;;;;;;;;;17.18;91.93;99789.03;1050425;28;19930;-55
2023/09/21 01:07:26;;;;;;;;;;;;;;;17.17;91.56;99800.88;1048288;28;19924;-54
2023/09/21 01:08:00;;;;;;;;;;;;;;;17.13;91.55;99789.88;1049309;28;19933;-52
2023/09/21 01:08:33;;;;;;;;;;;;;;;17.14;91.62;99801.44;1044901;28;20404;-55
2023/09/21 01:09:06;;;;;;;;;;;;;;;17.14;91.88;99796.06;1047627;28;20433;-55
2023/09/21 01:09:39;;;;;;;;;;;;;;;17.15;92.00;99786.91;1052325;28;19924;-53
2023/09/21 01:10:11;;;;;;;;;;;;;;;17.08;92.35;99786.44;1049597;28;20414;-56
2023/09/21 01:10:49;;;;;;;;;;;;;;;17.11;92.55;99785.88;1052824;28;19924;-55
2023/09/21 01:11:21;;;;;;;;;;;;;;;17.13;92.73;99786.41;1044500;28;20409;-53
2023/09/21 01:11:53;;;;;;;;;;;;;;;17.06;92.73;99789.44;1047817;28;19967;-51
2023/09/21 01:12:27;;;;;;;;;;;;;;;17.13;92.46;99789.09;1051529;28;20423;-55
2023/09/21 01:12:59;;;;;;;;;;;;;;;17.14;92.03;99790.69;1052858;28;19939;-55
2023/09/21 01:13:31;;;;;;;;;;;;;;;17.09;92.70;99793.44;1052829;28;20009;-55
2023/09/21 01:14:05;;;;;;;;;;;;;;;17.10;92.98;99784.28;1052544;28;19924;-55
2023/09/21 01:14:37;;;;;;;;;;;;;;;17.10;92.63;99784.28;1052101;28;19931;-53
2023/09/21 01:15:09;;;;;;;;;;;;;;;17.15;92.14;99784.22;1048861;28;19936;-53
2023/09/21 01:15:58;;;;;;;;;;;;;;;17.11;92.53;99783.19;1052961;28;19924;-51
2023/09/21 01:16:30;;;;;;;;;;;;;;;17.07;92.61;99774.88;1052409;28;20340;-52
2023/09/21 01:17:02;;;;;;;;;;;;;;;17.24;91.60;99779.81;1055709;28;20008;-53
2023/09/21 01:17:34;;;;;;;;;;;;;;;17.24;91.14;99779.81;1052293;28;19924;-52
2023/09/21 01:18:09;;;;;;;;;;;;;;;17.20;91.46;99778.78;1052438;28;19928;-53
2023/09/21 01:18:41;;;;;;;;;;;;;;;17.20;91.29;99789.53;1048595;28;19924;-52
2023/09/21 01:19:15;;;;;;;;;;;;;;;17.22;91.42;99776.59;1048092;28;19939;-52
2023/09/21 01:19:51;;;;;;;;;;;;;;;17.23;91.20;99772.81;1048211;28;19987;-53
2023/09/21 01:20:23;;;;;;;;;;;;;;;17.16;91.51;99773.16;1049490;28;19939;-51
2023/09/21 01:21:00;;;;;;;;;;;;;;;17.18;91.23;99767.50;1054060;28;20511;-52
2023/09/21 01:21:36;;;;;;;;;;;;;;;17.24;91.12;99769.84;1057342;28;19924;-52
2023/09/21 01:22:11;;;;;;;;;;;;;;;17.19;91.18;99772.59;1052571;28;20389;-53
2023/09/21 01:22:45;;;;;;;;;;;;;;;17.19;91.14;99771.78;1052629;28;19924;-51
2023/09/21 01:23:19;;;;;;;;;;;;;;;17.21;91.42;99777.69;1052189;28;20604;-52
2023/09/21 01:23:52;;;;;;;;;;;;;;;17.26;91.32;99777.66;1054219;28;19994;-53
2023/09/21 01:24:24;;;;;;;;;;;;;;;17.29;90.91;99771.69;1056899;28;20246;-53
2023/09/21 01:24:55;;;;;;;;;;;;;;;17.25;90.91;99766.06;1056993;28;20042;-52
2023/09/21 01:25:27;;;;;;;;;;;;;;;17.26;91.13;99770.38;1052821;28;20405;-53
2023/09/21 01:26:00;;;;;;;;;;;;;;;17.23;91.27;99770.13;1053647;28;19928;-55
2023/09/21 01:26:32;;;;;;;;;;;;;;;17.18;91.75;99775.56;1052580;28;20386;-55
2023/09/21 01:27:04;;;;;;;;;;;;;;;17.17;91.62;99764.00;1053319;28;20024;-55
2023/09/21 01:27:38;;;;;;;;;;;;;;;17.27;91.45;99769.28;1057290;28;19976;-55
2023/09/21 01:28:10;;;;;;;;;;;;;;;17.27;91.22;99769.28;1052622;28;20462;-55
2023/09/21 01:28:42;;;;;;;;;;;;;;;17.26;91.26;99766.88;1048477;28;20420;-55
2023/09/21 01:29:14;;;;;;;;;;;;;;;17.25;90.98;99770.63;1047927;28;19936;-55
2023/09/21 01:29:46;;;;;;;;;;;;;;;17.22;91.15;99768.53;1048608;28;19932;-56
2023/09/21 01:30:18;;;;;;;;;;;;;;;17.20;91.33;99768.00;1052979;28;19931;-55
2023/09/21 01:30:53;;;;;;;;;;;;;;;17.24;91.36;99774.41;1057404;28;19928;-55
2023/09/21 01:31:25;;;;;;;;;;;;;;;17.27;91.22;99769.28;1056619;28;20342;-55
2023/09/21 01:31:57;;;;;;;;;;;;;;;17.26;91.20;99772.28;1056989;28;20401;-55
2023/09/21 01:32:29;;;;;;;;;;;;;;;17.19;91.18;99769.91;1057340;28;19923;-55
2023/09/21 01:33:03;;;;;;;;;;;;;;;17.28;91.23;99767.41;1057578;28;19924;-54
2023/09/21 01:33:35;;;;;;;;;;;;;;;17.18;91.59;99759.44;1057585;28;19985;-55
2023/09/21 01:34:09;;;;;;;;;;;;;;;17.14;91.69;99758.41;1052543;28;19928;-55
2023/09/21 01:34:40;;;;;;;;;;;;;;;17.29;91.43;99763.63;1052603;28;20192;-55
2023/09/21 01:35:13;;;;;;;;;;;;;;;17.29;90.91;99760.94;1050248;28;20321;-55
2023/09/21 01:35:45;;;;;;;;;;;;;;;17.20;90.93;99763.44;1048925;28;20290;-55
2023/09/21 01:36:18;;;;;;;;;;;;;;;17.25;91.35;99754.50;1052350;28;20303;-53
2023/09/21 01:36:54;;;;;;;;;;;;;;;17.32;90.98;99749.59;1052657;28;19924;-55
2023/09/21 01:37:29;;;;;;;;;;;;;;;17.32;90.67;99751.47;1054020;28;20396;-55
2023/09/21 01:38:01;;;;;;;;;;;;;;;17.23;90.79;99751.28;1056676;28;19924;-53
2023/09/21 01:38:33;;;;;;;;;;;;;;;17.25;90.66;99759.88;1052325;28;19924;-51
2023/09/21 01:39:09;;;;;;;;;;;;;;;17.19;90.84;99767.22;1051737;28;19924;-53
2023/09/21 01:39:42;;;;;;;;;;;;;;;17.20;91.17;99762.63;1052057;28;20070;-52
2023/09/21 01:40:15;;;;;;;;;;;;;;;17.25;90.92;99759.88;1053776;28;19924;-53
2023/09/21 01:40:47;;;;;;;;;;;;;;;17.29;91.17;99760.94;1057155;28;19931;-55
2023/09/21 01:41:19;;;;;;;;;;;;;;;17.28;91.30;99751.25;1057287;28;19947;-52
2023/09/21 01:41:53;;;;;;;;;;;;;;;17.23;91.30;99756.66;1058040;28;19976;-55
2023/09/21 01:42:25;;;;;;;;;;;;;;;17.29;90.99;99752.84;1057464;28;20193;-56
2023/09/21 01:42:58;;;;;;;;;;;;;;;17.32;90.69;99748.78;1052597;28;19924;-52
2023/09/21 01:43:30;;;;;;;;;;;;;;;17.40;89.91;99746.25;1052344;28;20069;-52
2023/09/21 01:44:01;;;;;;;;;;;;;;;17.40;89.80;99754.31;1047914;28;19924;-53
2023/09/21 01:44:33;;;;;;;;;;;;;;;17.41;90.25;99753.25;1044630;28;19956;-52
2023/09/21 01:45:11;;;;;;;;;;;;;;;17.41;90.17;99750.53;1044307;28;19925;-53
2023/09/21 01:45:44;;;;;;;;;;;;;;;17.37;90.16;99746.84;1043621;28;19925;-55
2023/09/21 01:46:21;;;;;;;;;;;;;;;17.42;90.08;99757.53;1045497;28;19932;-55
2023/09/21 01:46:54;;;;;;;;;;;;;;;17.40;89.75;99757.03;1046727;28;20018;-55
2023/09/21 01:47:25;;;;;;;;;;;;;;;17.37;90.06;99757.59;1048170;28;20055;-55
2023/09/21 01:47:57;;;;;;;;;;;;;;;17.40;89.85;99762.41;1049470;28;20030;-55
2023/09/21 01:48:28;;;;;;;;;;;;;;;17.42;89.67;99754.84;1053188;28;20373;-53
2023/09/21 01:49:00;;;;;;;;;;;;;;;17.37;90.05;99746.84;1056772;28;19931;-53
2023/09/21 01:49:32;;;;;;;;;;;;;;;17.32;90.69;99757.66;1056581;28;20026;-53
2023/09/21 01:50:06;;;;;;;;;;;;;;;17.45;90.10;99740.81;1057348;28;19923;-53
2023/09/21 01:50:46;;;;;;;;;;;;;;;17.42;90.05;99748.66;1057017;28;20103;-52
2023/09/21 01:51:17;;;;;;;;;;;;;;;17.52;88.91;99743.13;1057360;28;20381;-53
2023/09/21 01:51:51;;;;;;;;;;;;;;;17.49;88.90;99744.50;1056625;28;19930;-52
2023/09/21 01:52:23;;;;;;;;;;;;;;;17.52;88.71;99735.84;1057130;28;19974;-55
2023/09/21 01:52:55;;;;;;;;;;;;;;;17.46;89.32;99737.00;1057584;28;19923;-55
2023/09/21 01:53:27;;;;;;;;;;;;;;;17.50;89.11;99740.72;1056653;28;19923;-55
2023/09/21 01:53:58;;;;;;;;;;;;;;;17.52;88.70;99749.31;1052411;28;20301;-55
2023/09/21 01:54:32;;;;;;;;;;;;;;;17.47;89.03;99744.00;1052314;28;19932;-55
2023/09/21 01:55:10;;;;;;;;;;;;;;;17.44;89.14;99744.59;1052785;28;19936;-53
2023/09/21 01:55:43;;;;;;;;;;;;;;;17.43;89.44;99748.38;1050403;28;19928;-52
2023/09/21 01:56:15;;;;;;;;;;;;;;;17.38;89.60;99742.25;1052848;28;20481;-55
2023/09/21 01:56:47;;;;;;;;;;;;;;;17.45;89.72;99738.09;1050028;28;20053;-55
2023/09/21 01:57:19;;;;;;;;;;;;;;;17.38;89.83;99740.34;1048617;28;20512;-55
2023/09/21 01:57:50;;;;;;;;;;;;;;;17.37;89.50;99733.38;1048282;28;19936;-55
2023/09/21 01:58:23;;;;;;;;;;;;;;;17.36;90.04;99744.44;1044170;28;19925;-53
2023/09/21 01:59:00;;;;;;;;;;;;;;;17.38;89.91;99734.97;1044405;28;20462;-53
2023/09/21 01:59:33;;;;;;;;;;;;;;;17.33;89.95;99735.03;1046287;28;20407;-54
2023/09/21 02:00:25;;;;;;;;;;;;;;;17.37;90.27;99735.25;1045767;28;20361;-55
2023/09/21 02:00:57;;;;;;;;;;;;;;;17.36;89.80;99734.47;1046824;28;19948;-55
2023/09/21 02:01:28;;;;;;;;;;;;;;;17.35;89.63;99732.84;1051774;28;19924;-55
2023/09/21 02:02:00;;;;;;;;;;;;;;;17.39;89.78;99733.88;1055605;28;19924;-55
2023/09/21 02:02:34;;;;;;;;;;;;;;;17.33;90.04;99729.66;1056816;28;19997;-55
2023/09/21 02:03:06;;;;;;;;;;;;;;;17.39;89.76;99730.38;1057289;28;20000;-55
2023/09/21 02:03:38;;;;;;;;;;;;;;;17.32;90.04;99730.75;1058042;28;20297;-52
2023/09/21 02:04:10;;;;;;;;;;;;;;;17.36;89.68;99723.69;1057264;28;20121;-53
2023/09/21 02:04:42;;;;;;;;;;;;;;;17.38;89.80;99726.91;1052234;28;19947;-52
2023/09/21 02:05:15;;;;;;;;;;;;;;;17.48;89.58;99721.38;1052165;28;19924;-52
2023/09/21 02:05:46;;;;;;;;;;;;;;;17.48;89.18;99723.25;1048353;28;20443;-53
2023/09/21 02:06:18;;;;;;;;;;;;;;;17.49;88.41;99719.47;1048369;28;20449;-51
2023/09/21 02:06:50;;;;;;;;;;;;;;;17.51;88.91;99714.59;1049142;28;19977;-53
2023/09/21 02:07:22;;;;;;;;;;;;;;;17.49;88.59;99719.47;1044977;28;19931;-55
2023/09/21 02:07:55;;;;;;;;;;;;;;;17.44;88.66;99724.94;1047907;28;20393;-55
2023/09/21 02:08:26;;;;;;;;;;;;;;;17.45;89.03;99731.91;1050281;28;19924;-55
2023/09/21 02:08:59;;;;;;;;;;;;;;;17.46;88.59;99722.75;1053208;28;19924;-52
2023/09/21 02:09:33;;;;;;;;;;;;;;;17.49;88.77;99711.41;1052473;28;19947;-52
2023/09/21 02:10:10;;;;;;;;;;;;;;;17.39;89.33;99717.72;1050009;28;19928;-53
2023/09/21 02:10:42;;;;;;;;;;;;;;;17.35;89.61;99722.09;1052316;28;20453;-52
2023/09/21 02:11:13;;;;;;;;;;;;;;;17.45;89.12;99700.41;1053895;28;19924;-53
2023/09/21 02:11:47;;;;;;;;;;;;;;;17.45;88.85;99711.19;1056851;28;19924;-53
2023/09/21 02:12:19;;;;;;;;;;;;;;;17.51;88.86;99699.25;1052535;28;19928;-52
2023/09/21 02:12:57;;;;;;;;;;;;;;;17.53;88.62;99715.13;1051944;28;19924;-53
2023/09/21 02:13:28;;;;;;;;;;;;;;;17.50;88.66;99713.00;1048287;28;19924;-50
2023/09/21 02:14:00;;;;;;;;;;;;;;;17.51;88.38;99703.84;1048911;28;20229;-53
2023/09/21 02:14:34;;;;;;;;;;;;;;;17.41;89.05;99712.06;1053517;28;20033;-55
2023/09/21 02:15:12;;;;;;;;;;;;;;;17.46;89.09;99712.78;1049041;28;20412;-55
2023/09/21 02:15:44;;;;;;;;;;;;;;;17.42;89.44;99710.97;1046171;28;19932;-55
2023/09/21 02:16:15;;;;;;;;;;;;;;;17.39;89.66;99711.53;1048023;28;20389;-53
2023/09/21 02:16:48;;;;;;;;;;;;;;;17.40;89.55;99713.94;1048999;28;19924;-55
2023/09/21 02:17:24;;;;;;;;;;;;;;;17.38;89.66;99710.75;1048828;28;19932;-55
2023/09/21 02:17:58;;;;;;;;;;;;;;;17.42;89.73;99710.97;1049823;28;19929;-55
2023/09/21 02:18:31;;;;;;;;;;;;;;;17.42;89.11;99701.00;1057158;28;20374;-55
2023/09/21 02:19:02;;;;;;;;;;;;;;;17.40;89.36;99708.56;1054578;28;19924;-51
2023/09/21 02:19:37;;;;;;;;;;;;;;;17.40;89.33;99705.88;1056861;28;19924;-53
2023/09/21 02:20:13;;;;;;;;;;;;;;;17.34;89.41;99709.72;1052171;28;19924;-52
2023/09/21 02:20:45;;;;;;;;;;;;;;;17.54;88.16;99705.97;1052176;28;19924;-52
2023/09/21 02:21:19;;;;;;;;;;;;;;;17.51;87.84;99703.84;1052625;28;19932;-53
2023/09/21 02:21:51;;;;;;;;;;;;;;;17.49;87.84;99704.13;1052643;28;20018;-53
2023/09/21 02:22:23;;;;;;;;;;;;;;;17.46;88.28;99701.22;1052092;28;19924;-53
2023/09/21 02:22:58;;;;;;;;;;;;;;;17.50;88.14;99702.25;1052709;28;19924;-50
2023/09/21 02:23:30;;;;;;;;;;;;;;;17.54;88.00;99704.09;1052186;28;20117;-52
2023/09/21 02:24:02;;;;;;;;;;;;;;;17.48;88.02;99699.84;1052300;28;20032;-55
2023/09/21 02:24:35;;;;;;;;;;;;;;;17.49;87.80;99689.88;1052338;28;19968;-55
2023/09/21 02:25:07;;;;;;;;;;;;;;;17.55;87.83;99696.81;1052741;28;19931;-55
2023/09/21 02:25:40;;;;;;;;;;;;;;;17.54;88.31;99697.91;1052316;28;19924;-55
2023/09/21 02:26:11;;;;;;;;;;;;;;;17.49;87.98;99695.25;1052682;28;19935;-55
2023/09/21 02:26:43;;;;;;;;;;;;;;;17.41;88.48;99696.72;1048106;28;20080;-55
2023/09/21 02:27:15;;;;;;;;;;;;;;;17.44;88.05;99693.44;1048240;28;19924;-55
2023/09/21 02:27:47;;;;;;;;;;;;;;;17.42;88.68;99695.63;1052723;28;20012;-55
2023/09/21 02:28:19;;;;;;;;;;;;;;;17.42;88.75;99694.81;1052610;28;19924;-55
2023/09/21 02:28:53;;;;;;;;;;;;;;;17.36;88.83;99696.78;1056243;28;19927;-55
2023/09/21 02:29:24;;;;;;;;;;;;;;;17.33;89.18;99696.56;1052037;28;19932;-52
2023/09/21 02:29:56;;;;;;;;;;;;;;;17.38;89.02;99688.41;1052484;28;19928;-54
2023/09/21 02:30:28;;;;;;;;;;;;;;;17.44;88.78;99690.75;1047711;28;20390;-52
2023/09/21 02:31:04;;;;;;;;;;;;;;;17.45;88.65;99689.66;1048304;28;20067;-53
2023/09/21 02:31:37;;;;;;;;;;;;;;;17.46;88.45;99674.28;1043986;28;19931;-53
2023/09/21 02:32:10;;;;;;;;;;;;;;;17.48;88.48;99674.81;1046264;28;20323;-53
2023/09/21 02:32:49;;;;;;;;;;;;;;;17.40;88.53;99689.72;1048029;28;20349;-54
2023/09/21 02:33:22;;;;;;;;;;;;;;;17.36;88.78;99688.69;1052239;28;19931;-55
2023/09/21 02:33:54;;;;;;;;;;;;;;;17.38;88.48;99677.66;1056412;28;20377;-52
2023/09/21 02:34:30;;;;;;;;;;;;;;;17.32;88.97;99681.50;1051921;28;19928;-51
2023/09/21 02:35:03;;;;;;;;;;;;;;;17.33;88.95;99689.28;1052104;28;19925;-53
2023/09/21 02:35:35;;;;;;;;;;;;;;;17.30;88.84;99693.34;1048250;28;19932;-52
2023/09/21 02:36:14;;;;;;;;;;;;;;;17.29;89.14;99681.00;1048984;28;20698;-51
2023/09/21 02:36:46;;;;;;;;;;;;;;;17.28;89.37;99678.59;1052536;28;20018;-53
2023/09/21 02:37:18;;;;;;;;;;;;;;;17.41;88.86;99683.25;1054464;28;20457;-54
2023/09/21 02:37:51;;;;;;;;;;;;;;;17.42;88.49;99678.66;1057249;28;19923;-53
2023/09/21 02:38:22;;;;;;;;;;;;;;;17.46;88.17;99674.28;1052328;28;19952;-53
2023/09/21 02:38:54;;;;;;;;;;;;;;;17.38;88.66;99678.44;1052387;28;19931;-50
2023/09/21 02:39:25;;;;;;;;;;;;;;;17.40;88.38;99678.16;1052282;28;19932;-55
2023/09/21 02:39:57;;;;;;;;;;;;;;;17.40;88.44;99681.66;1052916;28;19997;-55
2023/09/21 02:40:28;;;;;;;;;;;;;;;17.47;88.03;99684.78;1056448;28;19923;-55
2023/09/21 02:41:00;;;;;;;;;;;;;;;17.45;87.72;99676.19;1051996;28;20397;-55
2023/09/21 02:41:31;;;;;;;;;;;;;;;17.38;88.00;99678.44;1052971;28;19967;-55
2023/09/21 02:42:04;;;;;;;;;;;;;;;17.41;88.25;99677.88;1052206;28;19924;-55
2023/09/21 02:42:36;;;;;;;;;;;;;;;17.42;88.01;99682.16;1052126;28;19927;-55
2023/09/21 02:43:10;;;;;;;;;;;;;;;17.40;88.33;99678.94;1056812;28;20022;-55
2023/09/21 02:43:42;;;;;;;;;;;;;;;17.39;88.52;99668.47;1051908;28;19931;-55
2023/09/21 02:44:14;;;;;;;;;;;;;;;17.38;88.00;99670.38;1048080;28;19932;-55
2023/09/21 02:44:46;;;;;;;;;;;;;;;17.42;88.24;99673.28;1043969;28;19991;-53
2023/09/21 02:45:18;;;;;;;;;;;;;;;17.39;88.00;99674.66;1043568;28;19925;-53
2023/09/21 02:45:50;;;;;;;;;;;;;;;17.39;87.89;99673.84;1044473;28;19932;-53
2023/09/21 02:46:21;;;;;;;;;;;;;;;17.48;87.86;99667.53;1048865;28;19925;-52
2023/09/21 02:46:53;;;;;;;;;;;;;;;17.40;88.15;99668.19;1048332;28;20394;-53
2023/09/21 02:47:26;;;;;;;;;;;;;;;17.38;88.48;99673.06;1052356;28;19924;-52
2023/09/21 02:48:00;;;;;;;;;;;;;;;17.38;88.59;99672.25;1052603;28;20406;-54
2023/09/21 02:48:34;;;;;;;;;;;;;;;17.40;88.51;99665.50;1049244;28;19925;-53
2023/09/21 02:49:07;;;;;;;;;;;;;;;17.30;89.20;99673.72;1047777;28;20019;-52
2023/09/21 02:49:38;;;;;;;;;;;;;;;17.33;89.29;99670.44;1043839;28;19980;-54
2023/09/21 02:50:21;;;;;;;;;;;;;;;17.33;88.89;99670.44;1044777;28;19947;-53
2023/09/21 02:50:55;;;;;;;;;;;;;;;17.35;88.55;99662.88;1047419;28;19925;-52
2023/09/21 02:51:28;;;;;;;;;;;;;;;17.34;88.65;99655.09;1050458;28;19948;-52
2023/09/21 02:52:00;;;;;;;;;;;;;;;17.35;88.09;99665.56;1048339;28;19925;-52
2023/09/21 02:52:32;;;;;;;;;;;;;;;17.32;88.51;99668.84;1047600;28;19924;-53
2023/09/21 02:53:05;;;;;;;;;;;;;;;17.27;88.57;99666.22;1046038;28;20034;-53